sensor_id;sensor_type;location;lat;lon;timestamp;P1;durP1;ratioP1;P2;durP2;ratioP2
58685;SDS011;44465;53.206;-6.106;2023-02-02T00:01:29;1.55;;;0.70;;
58685;SDS011;44465;53.206;-6.106;2023-02-02T00:03:55;1.92;;;0.68;;
58685;SDS011;44465;53.206;-6.106;2023-02-02T00:06:25;0.95;;;0.68;;
58685;SDS011;44465;53.206;-6.106;2023-02-02T00:08:52;1.48;;;0.70;;
58685;SDS011;44465;53.206;-6.106;2023-02-02T00:11:18;0.80;;;0.63;;
58685;SDS011;44465;53.206;-6.106;2023-02-02T00:13:44;0.57;;;0.57;;
58685;SDS011;44465;53.206;-6.106;2023-02-02T00:16:20;0.90;;;0.70;;
58685;SDS011;44465;53.206;-6.106;2023-02-02T00:18:59;1.52;;;0.52;;
58685;SDS011;44465;53.206;-6.106;2023-02-02T00:21:26;2.40;;;0.65;;
58685;SDS011;44465;53.206;-6.106;2023-02-02T00:23:53;1.80;;;0.70;;
58685;SDS011;44465;53.206;-6.106;2023-02-02T00:26:19;1.13;;;0.63;;
58685;SDS011;44465;53.206;-6.106;2023-02-02T00:28:45;1.70;;;0.80;;
58685;SDS011;44465;53.206;-6.106;2023-02-02T00:31:14;0.50;;;0.43;;
58685;SDS011;44465;53.206;-6.106;2023-02-02T00:33:43;0.95;;;0.73;;
58685;SDS011;44465;53.206;-6.106;2023-02-02T00:36:13;2.95;;;1.08;;
58685;SDS011;44465;53.206;-6.106;2023-02-02T00:38:39;1.25;;;0.82;;
58685;SDS011;44465;53.206;-6.106;2023-02-02T00:41:05;1.95;;;0.70;;
58685;SDS011;44465;53.206;-6.106;2023-02-02T00:43:34;0.65;;;0.65;;
58685;SDS011;44465;53.206;-6.106;2023-02-02T00:45:59;1.00;;;0.73;;
58685;SDS011;44465;53.206;-6.106;2023-02-02T00:48:26;1.33;;;0.55;;
58685;SDS011;44465;53.206;-6.106;2023-02-02T00:50:51;1.58;;;0.50;;
58685;SDS011;44465;53.206;-6.106;2023-02-02T00:53:17;1.45;;;0.60;;
58685;SDS011;44465;53.206;-6.106;2023-02-02T00:55:43;0.82;;;0.60;;
58685;SDS011;44465;53.206;-6.106;2023-02-02T00:58:09;1.63;;;0.65;;
58685;SDS011;44465;53.206;-6.106;2023-02-02T01:00:35;1.48;;;0.70;;
58685;SDS011;44465;53.206;-6.106;2023-02-02T01:03:02;0.50;;;0.50;;
58685;SDS011;44465;53.206;-6.106;2023-02-02T01:05:29;2.83;;;0.80;;
58685;SDS011;44465;53.206;-6.106;2023-02-02T01:07:56;1.50;;;0.70;;
58685;SDS011;44465;53.206;-6.106;2023-02-02T01:10:21;3.25;;;0.80;;
58685;SDS011;44465;53.206;-6.106;2023-02-02T01:12:47;1.40;;;0.57;;
58685;SDS011;44465;53.206;-6.106;2023-02-02T01:18:01;2.20;;;0.82;;
58685;SDS011;44465;53.206;-6.106;2023-02-02T01:20:27;5.32;;;0.82;;
58685;SDS011;44465;53.206;-6.106;2023-02-02T01:22:53;1.80;;;0.90;;
58685;SDS011;44465;53.206;-6.106;2023-02-02T01:25:19;2.58;;;0.52;;
58685;SDS011;44465;53.206;-6.106;2023-02-02T01:27:44;0.85;;;0.60;;
58685;SDS011;44465;53.206;-6.106;2023-02-02T01:30:10;1.35;;;0.50;;
58685;SDS011;44465;53.206;-6.106;2023-02-02T01:32:36;11.88;;;0.95;;
58685;SDS011;44465;53.206;-6.106;2023-02-02T01:35:02;0.47;;;0.47;;
58685;SDS011;44465;53.206;-6.106;2023-02-02T01:37:31;1.70;;;0.50;;
58685;SDS011;44465;53.206;-6.106;2023-02-02T01:39:57;2.38;;;0.52;;
58685;SDS011;44465;53.206;-6.106;2023-02-02T01:42:22;1.48;;;0.57;;
58685;SDS011;44465;53.206;-6.106;2023-02-02T01:47:21;3.00;;;0.70;;
58685;SDS011;44465;53.206;-6.106;2023-02-02T01:49:50;0.60;;;0.60;;
58685;SDS011;44465;53.206;-6.106;2023-02-02T01:52:18;1.63;;;0.60;;
58685;SDS011;44465;53.206;-6.106;2023-02-02T01:54:52;2.00;;;0.63;;
58685;SDS011;44465;53.206;-6.106;2023-02-02T01:59:53;0.60;;;0.60;;
58685;SDS011;44465;53.206;-6.106;2023-02-02T02:02:21;1.05;;;0.60;;
58685;SDS011;44465;53.206;-6.106;2023-02-02T02:04:48;0.68;;;0.47;;
58685;SDS011;44465;53.206;-6.106;2023-02-02T02:07:15;1.35;;;0.60;;
58685;SDS011;44465;53.206;-6.106;2023-02-02T02:09:41;1.85;;;0.98;;
58685;SDS011;44465;53.206;-6.106;2023-02-02T02:12:10;1.23;;;0.50;;
58685;SDS011;44465;53.206;-6.106;2023-02-02T02:14:41;2.88;;;0.80;;
58685;SDS011;44465;53.206;-6.106;2023-02-02T02:17:38;0.52;;;0.50;;
58685;SDS011;44465;53.206;-6.106;2023-02-02T02:33:58;0.77;;;0.40;;
58685;SDS011;44465;53.206;-6.106;2023-02-02T02:39:26;0.65;;;0.30;;
58685;SDS011;44465;53.206;-6.106;2023-02-02T02:42:08;1.45;;;0.63;;
58685;SDS011;44465;53.206;-6.106;2023-02-02T02:44:40;0.40;;;0.40;;
58685;SDS011;44465;53.206;-6.106;2023-02-02T02:47:06;1.45;;;0.28;;
58685;SDS011;44465;53.206;-6.106;2023-02-02T02:49:40;0.38;;;0.30;;
58685;SDS011;44465;53.206;-6.106;2023-02-02T02:52:06;0.30;;;0.30;;
58685;SDS011;44465;53.206;-6.106;2023-02-02T03:08:24;0.55;;;0.52;;
58685;SDS011;44465;53.206;-6.106;2023-02-02T03:10:56;0.73;;;0.40;;
58685;SDS011;44465;53.206;-6.106;2023-02-02T03:15:50;0.40;;;0.40;;
58685;SDS011;44465;53.206;-6.106;2023-02-02T03:18:17;0.52;;;0.50;;
58685;SDS011;44465;53.206;-6.106;2023-02-02T03:20:46;0.45;;;0.40;;
58685;SDS011;44465;53.206;-6.106;2023-02-02T03:23:12;0.32;;;0.30;;
58685;SDS011;44465;53.206;-6.106;2023-02-02T03:25:38;0.93;;;0.30;;
58685;SDS011;44465;53.206;-6.106;2023-02-02T03:28:04;1.05;;;0.30;;
58685;SDS011;44465;53.206;-6.106;2023-02-02T03:30:30;0.25;;;0.25;;
58685;SDS011;44465;53.206;-6.106;2023-02-02T03:32:57;0.30;;;0.30;;
58685;SDS011;44465;53.206;-6.106;2023-02-02T03:35:23;0.70;;;0.47;;
58685;SDS011;44465;53.206;-6.106;2023-02-02T03:37:50;0.43;;;0.40;;
58685;SDS011;44465;53.206;-6.106;2023-02-02T03:40:16;0.73;;;0.73;;
58685;SDS011;44465;53.206;-6.106;2023-02-02T03:42:42;1.02;;;0.30;;
58685;SDS011;44465;53.206;-6.106;2023-02-02T03:45:08;0.40;;;0.40;;
58685;SDS011;44465;53.206;-6.106;2023-02-02T03:47:34;0.63;;;0.40;;
58685;SDS011;44465;53.206;-6.106;2023-02-02T03:49:59;0.75;;;0.40;;
58685;SDS011;44465;53.206;-6.106;2023-02-02T03:52:25;1.55;;;0.52;;
58685;SDS011;44465;53.206;-6.106;2023-02-02T03:54:54;0.57;;;0.40;;
58685;SDS011;44465;53.206;-6.106;2023-02-02T03:57:19;0.60;;;0.40;;
58685;SDS011;44465;53.206;-6.106;2023-02-02T03:59:45;0.30;;;0.30;;
58685;SDS011;44465;53.206;-6.106;2023-02-02T04:02:11;0.30;;;0.30;;
58685;SDS011;44465;53.206;-6.106;2023-02-02T04:04:36;0.52;;;0.20;;
58685;SDS011;44465;53.206;-6.106;2023-02-02T04:07:02;0.40;;;0.40;;
58685;SDS011;44465;53.206;-6.106;2023-02-02T04:09:27;0.30;;;0.30;;
58685;SDS011;44465;53.206;-6.106;2023-02-02T04:11:53;0.10;;;0.10;;
58685;SDS011;44465;53.206;-6.106;2023-02-02T04:14:22;0.73;;;0.50;;
58685;SDS011;44465;53.206;-6.106;2023-02-02T04:16:47;0.30;;;0.30;;
58685;SDS011;44465;53.206;-6.106;2023-02-02T04:19:13;0.30;;;0.28;;
58685;SDS011;44465;53.206;-6.106;2023-02-02T04:21:39;0.63;;;0.40;;
58685;SDS011;44465;53.206;-6.106;2023-02-02T04:24:05;0.38;;;0.32;;
58685;SDS011;44465;53.206;-6.106;2023-02-02T04:26:34;0.32;;;0.32;;
58685;SDS011;44465;53.206;-6.106;2023-02-02T04:28:59;0.75;;;0.20;;
58685;SDS011;44465;53.206;-6.106;2023-02-02T04:31:25;0.35;;;0.22;;
58685;SDS011;44465;53.206;-6.106;2023-02-02T04:33:54;0.40;;;0.40;;
58685;SDS011;44465;53.206;-6.106;2023-02-02T04:36:21;0.85;;;0.30;;
58685;SDS011;44465;53.206;-6.106;2023-02-02T04:38:50;0.47;;;0.38;;
58685;SDS011;44465;53.206;-6.106;2023-02-02T04:41:20;0.28;;;0.28;;
58685;SDS011;44465;53.206;-6.106;2023-02-02T04:43:46;0.25;;;0.25;;
58685;SDS011;44465;53.206;-6.106;2023-02-02T04:46:13;0.22;;;0.20;;
58685;SDS011;44465;53.206;-6.106;2023-02-02T04:48:39;0.30;;;0.30;;
58685;SDS011;44465;53.206;-6.106;2023-02-02T04:51:08;0.27;;;0.27;;
58685;SDS011;44465;53.206;-6.106;2023-02-02T04:53:35;0.32;;;0.30;;
58685;SDS011;44465;53.206;-6.106;2023-02-02T04:56:43;0.30;;;0.30;;
58685;SDS011;44465;53.206;-6.106;2023-02-02T04:58:52;0.25;;;0.25;;
58685;SDS011;44465;53.206;-6.106;2023-02-02T05:01:18;0.40;;;0.40;;
58685;SDS011;44465;53.206;-6.106;2023-02-02T05:03:47;0.30;;;0.30;;
58685;SDS011;44465;53.206;-6.106;2023-02-02T05:06:14;0.50;;;0.40;;
58685;SDS011;44465;53.206;-6.106;2023-02-02T05:08:40;0.28;;;0.28;;
58685;SDS011;44465;53.206;-6.106;2023-02-02T05:11:08;0.40;;;0.40;;
58685;SDS011;44465;53.206;-6.106;2023-02-02T05:13:43;0.25;;;0.20;;
58685;SDS011;44465;53.206;-6.106;2023-02-02T05:16:10;0.30;;;0.28;;
58685;SDS011;44465;53.206;-6.106;2023-02-02T05:18:36;0.20;;;0.20;;
58685;SDS011;44465;53.206;-6.106;2023-02-02T05:21:01;0.20;;;0.20;;
58685;SDS011;44465;53.206;-6.106;2023-02-02T05:23:28;0.30;;;0.30;;
58685;SDS011;44465;53.206;-6.106;2023-02-02T05:25:55;0.30;;;0.30;;
58685;SDS011;44465;53.206;-6.106;2023-02-02T05:28:21;0.52;;;0.20;;
58685;SDS011;44465;53.206;-6.106;2023-02-02T05:30:47;0.15;;;0.15;;
58685;SDS011;44465;53.206;-6.106;2023-02-02T05:33:13;0.30;;;0.30;;
58685;SDS011;44465;53.206;-6.106;2023-02-02T05:35:39;0.25;;;0.20;;
58685;SDS011;44465;53.206;-6.106;2023-02-02T05:38:05;0.28;;;0.22;;
58685;SDS011;44465;53.206;-6.106;2023-02-02T05:40:31;0.20;;;0.20;;
58685;SDS011;44465;53.206;-6.106;2023-02-02T05:42:56;0.20;;;0.20;;
58685;SDS011;44465;53.206;-6.106;2023-02-02T05:45:22;0.63;;;0.30;;
58685;SDS011;44465;53.206;-6.106;2023-02-02T05:47:48;0.50;;;0.43;;
58685;SDS011;44465;53.206;-6.106;2023-02-02T05:50:14;0.20;;;0.20;;
58685;SDS011;44465;53.206;-6.106;2023-02-02T05:52:42;0.20;;;0.20;;
58685;SDS011;44465;53.206;-6.106;2023-02-02T05:55:09;0.13;;;0.13;;
58685;SDS011;44465;53.206;-6.106;2023-02-02T05:57:34;0.38;;;0.30;;
58685;SDS011;44465;53.206;-6.106;2023-02-02T06:00:00;0.30;;;0.30;;
58685;SDS011;44465;53.206;-6.106;2023-02-02T06:02:26;0.17;;;0.17;;
58685;SDS011;44465;53.206;-6.106;2023-02-02T06:04:51;0.35;;;0.35;;
58685;SDS011;44465;53.206;-6.106;2023-02-02T06:07:17;0.20;;;0.20;;
58685;SDS011;44465;53.206;-6.106;2023-02-02T06:09:43;0.38;;;0.30;;
58685;SDS011;44465;53.206;-6.106;2023-02-02T06:12:08;0.28;;;0.28;;
58685;SDS011;44465;53.206;-6.106;2023-02-02T06:14:34;0.20;;;0.20;;
58685;SDS011;44465;53.206;-6.106;2023-02-02T06:16:59;0.30;;;0.30;;
58685;SDS011;44465;53.206;-6.106;2023-02-02T06:19:25;0.43;;;0.30;;
58685;SDS011;44465;53.206;-6.106;2023-02-02T06:21:51;0.47;;;0.47;;
58685;SDS011;44465;53.206;-6.106;2023-02-02T06:24:16;0.85;;;0.30;;
58685;SDS011;44465;53.206;-6.106;2023-02-02T06:26:42;0.20;;;0.20;;
58685;SDS011;44465;53.206;-6.106;2023-02-02T06:29:10;0.20;;;0.20;;
58685;SDS011;44465;53.206;-6.106;2023-02-02T06:31:36;0.10;;;0.10;;
58685;SDS011;44465;53.206;-6.106;2023-02-02T06:34:02;0.20;;;0.20;;
58685;SDS011;44465;53.206;-6.106;2023-02-02T06:36:27;0.30;;;0.30;;
58685;SDS011;44465;53.206;-6.106;2023-02-02T06:38:53;0.90;;;0.20;;
58685;SDS011;44465;53.206;-6.106;2023-02-02T06:41:20;0.32;;;0.30;;
58685;SDS011;44465;53.206;-6.106;2023-02-02T06:43:46;0.32;;;0.32;;
58685;SDS011;44465;53.206;-6.106;2023-02-02T06:46:13;0.70;;;0.55;;
58685;SDS011;44465;53.206;-6.106;2023-02-02T06:48:39;0.10;;;0.10;;
58685;SDS011;44465;53.206;-6.106;2023-02-02T06:51:05;0.52;;;0.20;;
58685;SDS011;44465;53.206;-6.106;2023-02-02T06:53:31;0.40;;;0.32;;
58685;SDS011;44465;53.206;-6.106;2023-02-02T06:55:59;0.13;;;0.13;;
58685;SDS011;44465;53.206;-6.106;2023-02-02T06:58:26;0.30;;;0.30;;
58685;SDS011;44465;53.206;-6.106;2023-02-02T07:00:53;0.52;;;0.20;;
58685;SDS011;44465;53.206;-6.106;2023-02-02T07:03:19;0.22;;;0.20;;
58685;SDS011;44465;53.206;-6.106;2023-02-02T07:05:46;0.63;;;0.30;;
58685;SDS011;44465;53.206;-6.106;2023-02-02T07:08:12;0.20;;;0.20;;
58685;SDS011;44465;53.206;-6.106;2023-02-02T07:10:38;0.20;;;0.20;;
58685;SDS011;44465;53.206;-6.106;2023-02-02T07:13:04;0.30;;;0.20;;
58685;SDS011;44465;53.206;-6.106;2023-02-02T07:15:34;0.20;;;0.20;;
58685;SDS011;44465;53.206;-6.106;2023-02-02T07:18:02;0.32;;;0.30;;
58685;SDS011;44465;53.206;-6.106;2023-02-02T07:20:28;0.20;;;0.20;;
58685;SDS011;44465;53.206;-6.106;2023-02-02T07:22:54;0.20;;;0.20;;
58685;SDS011;44465;53.206;-6.106;2023-02-02T07:25:20;0.17;;;0.17;;
58685;SDS011;44465;53.206;-6.106;2023-02-02T07:27:46;0.25;;;0.25;;
58685;SDS011;44465;53.206;-6.106;2023-02-02T07:30:14;0.20;;;0.20;;
58685;SDS011;44465;53.206;-6.106;2023-02-02T07:32:45;0.17;;;0.15;;
58685;SDS011;44465;53.206;-6.106;2023-02-02T07:35:11;0.15;;;0.15;;
58685;SDS011;44465;53.206;-6.106;2023-02-02T07:37:36;0.20;;;0.20;;
58685;SDS011;44465;53.206;-6.106;2023-02-02T07:40:02;0.17;;;0.17;;
58685;SDS011;44465;53.206;-6.106;2023-02-02T07:42:28;0.20;;;0.20;;
58685;SDS011;44465;53.206;-6.106;2023-02-02T07:44:53;0.22;;;0.20;;
58685;SDS011;44465;53.206;-6.106;2023-02-02T07:47:22;0.10;;;0.10;;
58685;SDS011;44465;53.206;-6.106;2023-02-02T07:49:52;0.10;;;0.10;;
58685;SDS011;44465;53.206;-6.106;2023-02-02T07:52:18;0.25;;;0.25;;
58685;SDS011;44465;53.206;-6.106;2023-02-02T07:54:44;0.20;;;0.20;;
58685;SDS011;44465;53.206;-6.106;2023-02-02T07:57:10;0.45;;;0.20;;
58685;SDS011;44465;53.206;-6.106;2023-02-02T07:59:37;0.25;;;0.25;;
58685;SDS011;44465;53.206;-6.106;2023-02-02T08:02:03;0.10;;;0.10;;
58685;SDS011;44465;53.206;-6.106;2023-02-02T08:04:28;0.10;;;0.10;;
58685;SDS011;44465;53.206;-6.106;2023-02-02T08:06:54;0.13;;;0.13;;
58685;SDS011;44465;53.206;-6.106;2023-02-02T08:09:20;0.20;;;0.20;;
58685;SDS011;44465;53.206;-6.106;2023-02-02T08:11:46;0.20;;;0.20;;
58685;SDS011;44465;53.206;-6.106;2023-02-02T08:14:15;0.50;;;0.30;;
58685;SDS011;44465;53.206;-6.106;2023-02-02T08:16:41;0.93;;;0.40;;
58685;SDS011;44465;53.206;-6.106;2023-02-02T08:19:08;0.40;;;0.30;;
58685;SDS011;44465;53.206;-6.106;2023-02-02T08:21:34;0.20;;;0.20;;
58685;SDS011;44465;53.206;-6.106;2023-02-02T08:24:00;0.10;;;0.10;;
58685;SDS011;44465;53.206;-6.106;2023-02-02T08:26:27;0.38;;;0.10;;
58685;SDS011;44465;53.206;-6.106;2023-02-02T08:28:55;0.20;;;0.20;;
58685;SDS011;44465;53.206;-6.106;2023-02-02T08:31:29;0.20;;;0.20;;
58685;SDS011;44465;53.206;-6.106;2023-02-02T08:34:04;0.20;;;0.20;;
58685;SDS011;44465;53.206;-6.106;2023-02-02T08:36:30;0.20;;;0.20;;
58685;SDS011;44465;53.206;-6.106;2023-02-02T08:39:20;0.15;;;0.15;;
58685;SDS011;44465;53.206;-6.106;2023-02-02T08:41:45;0.25;;;0.20;;
58685;SDS011;44465;53.206;-6.106;2023-02-02T08:44:12;0.10;;;0.10;;
58685;SDS011;44465;53.206;-6.106;2023-02-02T08:46:39;0.30;;;0.30;;
58685;SDS011;44465;53.206;-6.106;2023-02-02T08:49:05;0.70;;;0.20;;
58685;SDS011;44465;53.206;-6.106;2023-02-02T08:51:31;0.20;;;0.20;;
58685;SDS011;44465;53.206;-6.106;2023-02-02T08:53:57;0.10;;;0.10;;
58685;SDS011;44465;53.206;-6.106;2023-02-02T08:56:23;0.30;;;0.30;;
58685;SDS011;44465;53.206;-6.106;2023-02-02T08:58:54;0.20;;;0.15;;
58685;SDS011;44465;53.206;-6.106;2023-02-02T09:01:23;0.63;;;0.38;;
58685;SDS011;44465;53.206;-6.106;2023-02-02T09:03:54;0.47;;;0.30;;
58685;SDS011;44465;53.206;-6.106;2023-02-02T09:06:22;0.60;;;0.20;;
58685;SDS011;44465;53.206;-6.106;2023-02-02T09:08:52;0.20;;;0.20;;
58685;SDS011;44465;53.206;-6.106;2023-02-02T09:11:18;0.20;;;0.20;;
58685;SDS011;44465;53.206;-6.106;2023-02-02T09:13:45;0.30;;;0.30;;
58685;SDS011;44465;53.206;-6.106;2023-02-02T09:16:16;0.20;;;0.20;;
58685;SDS011;44465;53.206;-6.106;2023-02-02T09:18:43;0.15;;;0.15;;
58685;SDS011;44465;53.206;-6.106;2023-02-02T09:21:10;3.08;;;0.28;;
58685;SDS011;44465;53.206;-6.106;2023-02-02T09:23:38;0.10;;;0.10;;
58685;SDS011;44465;53.206;-6.106;2023-02-02T09:26:18;0.25;;;0.25;;
58685;SDS011;44465;53.206;-6.106;2023-02-02T09:28:45;1.08;;;0.43;;
58685;SDS011;44465;53.206;-6.106;2023-02-02T09:31:12;0.95;;;0.43;;
58685;SDS011;44465;53.206;-6.106;2023-02-02T09:33:38;3.58;;;0.65;;
58685;SDS011;44465;53.206;-6.106;2023-02-02T09:36:09;2.72;;;0.40;;
58685;SDS011;44465;53.206;-6.106;2023-02-02T09:38:36;6.43;;;0.40;;
58685;SDS011;44465;53.206;-6.106;2023-02-02T09:49:39;1.17;;;0.50;;
58685;SDS011;44465;53.206;-6.106;2023-02-02T09:52:33;0.73;;;0.43;;
58685;SDS011;44465;53.206;-6.106;2023-02-02T09:58:04;3.53;;;0.40;;
58685;SDS011;44465;53.206;-6.106;2023-02-02T10:00:33;1.23;;;0.30;;
58685;SDS011;44465;53.206;-6.106;2023-02-02T10:03:09;2.63;;;0.40;;
58685;SDS011;44465;53.206;-6.106;2023-02-02T10:05:49;0.30;;;0.30;;
58685;SDS011;44465;53.206;-6.106;2023-02-02T10:08:19;2.28;;;0.70;;
58685;SDS011;44465;53.206;-6.106;2023-02-02T10:10:50;0.80;;;0.50;;
58685;SDS011;44465;53.206;-6.106;2023-02-02T10:13:19;1.83;;;0.60;;
58685;SDS011;44465;53.206;-6.106;2023-02-02T10:20:53;1.23;;;0.30;;
58685;SDS011;44465;53.206;-6.106;2023-02-02T10:23:49;1.60;;;0.40;;
58685;SDS011;44465;53.206;-6.106;2023-02-02T10:26:21;0.85;;;0.47;;
58685;SDS011;44465;53.206;-6.106;2023-02-02T10:29:14;1.52;;;0.50;;
58685;SDS011;44465;53.206;-6.106;2023-02-02T10:45:33;0.50;;;0.30;;
58685;SDS011;44465;53.206;-6.106;2023-02-02T10:48:00;0.63;;;0.20;;
58685;SDS011;44465;53.206;-6.106;2023-02-02T10:50:26;0.28;;;0.22;;
58685;SDS011;44465;53.206;-6.106;2023-02-02T10:52:53;0.60;;;0.30;;
58685;SDS011;44465;53.206;-6.106;2023-02-02T10:55:37;0.63;;;0.15;;
58685;SDS011;44465;53.206;-6.106;2023-02-02T11:03:11;0.10;;;0.10;;
58685;SDS011;44465;53.206;-6.106;2023-02-02T11:05:41;0.80;;;0.30;;
58685;SDS011;44465;53.206;-6.106;2023-02-02T11:10:59;0.22;;;0.20;;
58685;SDS011;44465;53.206;-6.106;2023-02-02T11:13:43;0.98;;;0.40;;
58685;SDS011;44465;53.206;-6.106;2023-02-02T11:18:40;0.85;;;0.30;;
58685;SDS011;44465;53.206;-6.106;2023-02-02T11:21:17;1.55;;;0.30;;
58685;SDS011;44465;53.206;-6.106;2023-02-02T11:23:56;2.72;;;0.60;;
58685;SDS011;44465;53.206;-6.106;2023-02-02T11:26:25;0.40;;;0.20;;
58685;SDS011;44465;53.206;-6.106;2023-02-02T11:28:53;0.47;;;0.30;;
58685;SDS011;44465;53.206;-6.106;2023-02-02T11:31:36;0.43;;;0.30;;
58685;SDS011;44465;53.206;-6.106;2023-02-02T11:34:07;4.50;;;0.70;;
58685;SDS011;44465;53.206;-6.106;2023-02-02T11:36:34;2.80;;;0.30;;
58685;SDS011;44465;53.206;-6.106;2023-02-02T11:39:19;2.38;;;0.30;;
58685;SDS011;44465;53.206;-6.106;2023-02-02T11:41:45;0.77;;;0.20;;
58685;SDS011;44465;53.206;-6.106;2023-02-02T11:44:26;0.47;;;0.30;;
58685;SDS011;44465;53.206;-6.106;2023-02-02T11:46:54;1.98;;;0.20;;
58685;SDS011;44465;53.206;-6.106;2023-02-02T11:49:21;0.25;;;0.20;;
58685;SDS011;44465;53.206;-6.106;2023-02-02T11:51:55;0.10;;;0.10;;
58685;SDS011;44465;53.206;-6.106;2023-02-02T11:54:36;2.05;;;0.30;;
58685;SDS011;44465;53.206;-6.106;2023-02-02T11:57:03;0.65;;;0.30;;
58685;SDS011;44465;53.206;-6.106;2023-02-02T11:59:43;1.38;;;0.30;;
58685;SDS011;44465;53.206;-6.106;2023-02-02T12:04:34;0.40;;;0.32;;
58685;SDS011;44465;53.206;-6.106;2023-02-02T12:07:00;0.13;;;0.13;;
58685;SDS011;44465;53.206;-6.106;2023-02-02T12:09:26;0.40;;;0.20;;
58685;SDS011;44465;53.206;-6.106;2023-02-02T12:33:50;0.30;;;0.30;;
58685;SDS011;44465;53.206;-6.106;2023-02-02T12:37:04;11.40;;;0.88;;
58685;SDS011;44465;53.206;-6.106;2023-02-02T12:42:47;3.13;;;0.30;;
58685;SDS011;44465;53.206;-6.106;2023-02-02T13:12:51;0.30;;;0.30;;
58685;SDS011;44465;53.206;-6.106;2023-02-02T13:15:21;2.00;;;0.50;;
58685;SDS011;44465;53.206;-6.106;2023-02-02T13:17:54;0.50;;;0.28;;
58685;SDS011;44465;53.206;-6.106;2023-02-02T13:20:24;1.05;;;0.60;;
58685;SDS011;44465;53.206;-6.106;2023-02-02T13:23:18;0.65;;;0.52;;
58685;SDS011;44465;53.206;-6.106;2023-02-02T13:31:36;1.45;;;0.40;;
58685;SDS011;44465;53.206;-6.106;2023-02-02T13:36:43;2.38;;;0.22;;
58685;SDS011;44465;53.206;-6.106;2023-02-02T13:39:16;0.40;;;0.30;;
58685;SDS011;44465;53.206;-6.106;2023-02-02T13:41:46;0.32;;;0.20;;
58685;SDS011;44465;53.206;-6.106;2023-02-02T13:44:16;0.40;;;0.20;;
58685;SDS011;44465;53.206;-6.106;2023-02-02T13:49:48;0.80;;;0.22;;
58685;SDS011;44465;53.206;-6.106;2023-02-02T14:00:59;0.68;;;0.40;;
58685;SDS011;44465;53.206;-6.106;2023-02-02T14:06:15;0.30;;;0.30;;
58685;SDS011;44465;53.206;-6.106;2023-02-02T14:08:44;1.80;;;0.50;;
58685;SDS011;44465;53.206;-6.106;2023-02-02T14:11:15;1.75;;;0.40;;
58685;SDS011;44465;53.206;-6.106;2023-02-02T14:13:46;1.55;;;0.47;;
58685;SDS011;44465;53.206;-6.106;2023-02-02T14:19:04;0.85;;;0.45;;
58685;SDS011;44465;53.206;-6.106;2023-02-02T14:26:52;0.88;;;0.60;;
58685;SDS011;44465;53.206;-6.106;2023-02-02T14:34:42;1.10;;;0.43;;
58685;SDS011;44465;53.206;-6.106;2023-02-02T14:40:01;1.60;;;0.30;;
58685;SDS011;44465;53.206;-6.106;2023-02-02T14:45:38;0.47;;;0.40;;
58685;SDS011;44465;53.206;-6.106;2023-02-02T14:56:03;0.30;;;0.30;;
58685;SDS011;44465;53.206;-6.106;2023-02-02T14:58:36;1.00;;;0.35;;
58685;SDS011;44465;53.206;-6.106;2023-02-02T15:17:08;0.13;;;0.13;;
58685;SDS011;44465;53.206;-6.106;2023-02-02T15:19:59;0.45;;;0.22;;
58685;SDS011;44465;53.206;-6.106;2023-02-02T15:22:41;0.77;;;0.30;;
58685;SDS011;44465;53.206;-6.106;2023-02-02T15:28:06;0.40;;;0.40;;
58685;SDS011;44465;53.206;-6.106;2023-02-02T15:30:46;0.32;;;0.28;;
58685;SDS011;44465;53.206;-6.106;2023-02-02T15:33:21;2.45;;;0.40;;
58685;SDS011;44465;53.206;-6.106;2023-02-02T15:35:51;0.20;;;0.20;;
58685;SDS011;44465;53.206;-6.106;2023-02-02T15:38:18;0.85;;;0.47;;
58685;SDS011;44465;53.206;-6.106;2023-02-02T15:40:45;3.92;;;0.50;;
58685;SDS011;44465;53.206;-6.106;2023-02-02T15:43:11;3.22;;;0.50;;
58685;SDS011;44465;53.206;-6.106;2023-02-02T15:48:21;3.35;;;1.00;;
58685;SDS011;44465;53.206;-6.106;2023-02-02T15:50:50;5.07;;;0.98;;
58685;SDS011;44465;53.206;-6.106;2023-02-02T15:53:26;1.27;;;1.00;;
58685;SDS011;44465;53.206;-6.106;2023-02-02T15:55:56;2.13;;;0.90;;
58685;SDS011;44465;53.206;-6.106;2023-02-02T15:58:23;2.22;;;0.85;;
58685;SDS011;44465;53.206;-6.106;2023-02-02T16:01:03;3.65;;;0.73;;
58685;SDS011;44465;53.206;-6.106;2023-02-02T16:04:16;1.00;;;0.70;;
58685;SDS011;44465;53.206;-6.106;2023-02-02T16:06:16;3.38;;;0.60;;
58685;SDS011;44465;53.206;-6.106;2023-02-02T16:08:43;2.53;;;0.50;;
58685;SDS011;44465;53.206;-6.106;2023-02-02T16:11:16;3.55;;;1.00;;
58685;SDS011;44465;53.206;-6.106;2023-02-02T16:14:18;2.38;;;1.17;;
58685;SDS011;44465;53.206;-6.106;2023-02-02T16:16:41;7.85;;;1.08;;
58685;SDS011;44465;53.206;-6.106;2023-02-02T16:21:33;5.22;;;1.20;;
58685;SDS011;44465;53.206;-6.106;2023-02-02T16:24:03;6.85;;;1.33;;
58685;SDS011;44465;53.206;-6.106;2023-02-02T16:26:31;3.70;;;0.80;;
58685;SDS011;44465;53.206;-6.106;2023-02-02T16:29:01;3.58;;;0.90;;
58685;SDS011;44465;53.206;-6.106;2023-02-02T16:31:27;2.53;;;0.60;;
58685;SDS011;44465;53.206;-6.106;2023-02-02T16:36:24;2.28;;;0.70;;
58685;SDS011;44465;53.206;-6.106;2023-02-02T16:38:56;1.77;;;0.80;;
58685;SDS011;44465;53.206;-6.106;2023-02-02T16:41:29;2.58;;;0.75;;
58685;SDS011;44465;53.206;-6.106;2023-02-02T16:49:22;3.63;;;1.08;;
58685;SDS011;44465;53.206;-6.106;2023-02-02T16:52:12;3.80;;;1.00;;
58685;SDS011;44465;53.206;-6.106;2023-02-02T16:54:41;2.25;;;0.70;;
58685;SDS011;44465;53.206;-6.106;2023-02-02T16:57:15;4.47;;;0.90;;
58685;SDS011;44465;53.206;-6.106;2023-02-02T16:59:48;2.30;;;1.00;;
58685;SDS011;44465;53.206;-6.106;2023-02-02T17:04:51;4.05;;;1.33;;
58685;SDS011;44465;53.206;-6.106;2023-02-02T17:07:40;2.60;;;0.70;;
58685;SDS011;44465;53.206;-6.106;2023-02-02T17:12:40;3.90;;;0.93;;
58685;SDS011;44465;53.206;-6.106;2023-02-02T17:17:41;2.15;;;1.08;;
58685;SDS011;44465;53.206;-6.106;2023-02-02T17:20:12;3.47;;;0.88;;
58685;SDS011;44465;53.206;-6.106;2023-02-02T17:22:42;2.92;;;0.70;;
58685;SDS011;44465;53.206;-6.106;2023-02-02T17:25:14;3.70;;;0.70;;
58685;SDS011;44465;53.206;-6.106;2023-02-02T17:27:45;2.67;;;1.02;;
58685;SDS011;44465;53.206;-6.106;2023-02-02T17:30:15;3.25;;;0.98;;
58685;SDS011;44465;53.206;-6.106;2023-02-02T17:32:42;2.10;;;0.90;;
58685;SDS011;44465;53.206;-6.106;2023-02-02T17:35:14;1.85;;;0.80;;
58685;SDS011;44465;53.206;-6.106;2023-02-02T17:37:45;1.38;;;0.70;;
58685;SDS011;44465;53.206;-6.106;2023-02-02T17:40:13;4.07;;;0.93;;
58685;SDS011;44465;53.206;-6.106;2023-02-02T17:42:40;1.35;;;0.95;;
58685;SDS011;44465;53.206;-6.106;2023-02-02T17:45:15;1.30;;;1.02;;
58685;SDS011;44465;53.206;-6.106;2023-02-02T17:47:41;0.80;;;0.70;;
58685;SDS011;44465;53.206;-6.106;2023-02-02T17:50:07;2.08;;;0.70;;
58685;SDS011;44465;53.206;-6.106;2023-02-02T17:52:34;3.30;;;1.23;;
58685;SDS011;44465;53.206;-6.106;2023-02-02T17:55:01;1.23;;;0.80;;
58685;SDS011;44465;53.206;-6.106;2023-02-02T17:57:27;1.63;;;1.20;;
58685;SDS011;44465;53.206;-6.106;2023-02-02T17:59:52;2.30;;;1.05;;
58685;SDS011;44465;53.206;-6.106;2023-02-02T18:02:18;1.45;;;0.75;;
58685;SDS011;44465;53.206;-6.106;2023-02-02T18:04:43;0.95;;;0.85;;
58685;SDS011;44465;53.206;-6.106;2023-02-02T18:07:09;1.80;;;1.02;;
58685;SDS011;44465;53.206;-6.106;2023-02-02T18:09:35;1.38;;;0.80;;
58685;SDS011;44465;53.206;-6.106;2023-02-02T18:12:00;0.65;;;0.65;;
58685;SDS011;44465;53.206;-6.106;2023-02-02T18:14:26;1.33;;;0.90;;
58685;SDS011;44465;53.206;-6.106;2023-02-02T18:16:51;1.25;;;1.10;;
58685;SDS011;44465;53.206;-6.106;2023-02-02T18:19:17;0.88;;;0.80;;
58685;SDS011;44465;53.206;-6.106;2023-02-02T18:21:42;2.85;;;1.00;;
58685;SDS011;44465;53.206;-6.106;2023-02-02T18:24:11;1.13;;;0.80;;
58685;SDS011;44465;53.206;-6.106;2023-02-02T18:26:39;1.48;;;1.10;;
58685;SDS011;44465;53.206;-6.106;2023-02-02T18:29:05;1.05;;;0.80;;
58685;SDS011;44465;53.206;-6.106;2023-02-02T18:31:30;0.75;;;0.75;;